Time;durP1;ratioP1;P1;durP2;ratioP2;P2;SDS_P1;SDS_P2;PMS_P1;PMS_P2;Temp;Humidity;BMP_temperature;BMP_pressure;BME280_temperature;BME280_humidity;BME280_pressure;Samples;Min_cycle;Max_cycle;Signal;HPM_P1;HPM_P2
2023/08/31 00:02:19;;;;;;;6.32;4.13;;;12.50;99.90;;;;;;5071651;28;20086;-62
2023/08/31 00:04:45;;;;;;;4.57;2.80;;;12.50;99.90;;;;;;5060175;28;20067;-63
2023/08/31 00:07:11;;;;;;;6.55;3.10;;;12.60;99.90;;;;;;5071539;28;20048;-63
2023/08/31 00:09:39;;;;;;;7.50;2.80;;;12.70;99.90;;;;;;5073238;28;20150;-63
2023/08/31 00:12:05;;;;;;;4.65;2.38;;;12.60;99.90;;;;;;5057406;28;20090;-63
2023/08/31 00:14:32;;;;;;;4.68;2.58;;;12.70;99.90;;;;;;5047948;28;20049;-62
2023/08/31 00:16:58;;;;;;;3.17;2.08;;;12.80;99.90;;;;;;5040862;28;20056;-63
2023/08/31 00:19:24;;;;;;;3.28;1.42;;;12.70;99.90;;;;;;5075173;28;20045;-63
2023/08/31 00:21:51;;;;;;;3.20;1.40;;;12.80;99.90;;;;;;5074978;28;20048;-63
2023/08/31 00:24:17;;;;;;;3.60;1.40;;;12.80;99.90;;;;;;5059615;28;20049;-63
2023/08/31 00:26:43;;;;;;;4.20;1.60;;;12.70;99.90;;;;;;5075037;28;20059;-62
2023/08/31 00:29:16;;;;;;;3.47;2.00;;;12.80;99.90;;;;;;5074747;28;20353;-63
2023/08/31 00:31:44;;;;;;;3.28;1.77;;;12.80;99.90;;;;;;5074671;28;20044;-63
2023/08/31 00:34:14;;;;;;;3.97;1.63;;;12.70;99.90;;;;;;5067550;28;20151;-63
2023/08/31 00:36:40;;;;;;;3.13;1.40;;;12.80;99.90;;;;;;5056924;28;20052;-64
2023/08/31 00:39:10;;;;;;;3.20;1.10;;;12.70;99.90;;;;;;5074900;28;20055;-63
2023/08/31 00:41:37;;;;;;;3.42;1.17;;;12.70;99.90;;;;;;5057029;28;20110;-63
2023/08/31 00:44:04;;;;;;;3.55;1.00;;;12.60;99.90;;;;;;5073460;28;20472;-63
2023/08/31 00:46:31;;;;;;;1.77;1.00;;;12.60;99.90;;;;;;5074483;28;20052;-62
2023/08/31 00:48:58;;;;;;;2.47;1.05;;;12.60;99.90;;;;;;5074168;28;20859;-64
2023/08/31 00:51:25;;;;;;;2.22;0.85;;;12.50;99.90;;;;;;5074460;28;20044;-64
2023/08/31 00:53:54;;;;;;;2.22;1.00;;;12.50;99.90;;;;;;5070544;28;20048;-63
2023/08/31 00:56:20;;;;;;;3.90;1.25;;;12.40;99.90;;;;;;5056949;28;20055;-63
2023/08/31 00:58:48;;;;;;;3.80;1.88;;;12.50;99.90;;;;;;5074255;28;20147;-62
2023/08/31 01:01:53;;;;;;;5.50;2.60;;;12.50;99.90;;;;;;5074219;28;20459;-63
2023/08/31 01:04:29;;;;;;;5.53;3.00;;;12.50;99.90;;;;;;5073471;28;20105;-62
2023/08/31 01:07:17;;;;;;;6.10;2.90;;;12.50;99.90;;;;;;5072667;28;20044;-63
2023/08/31 01:10:11;;;;;;;5.55;3.15;;;12.60;99.90;;;;;;5073910;28;20052;-63
2023/08/31 01:12:50;;;;;;;5.85;3.50;;;12.50;99.90;;;;;;5074119;28;20067;-62
2023/08/31 01:15:18;;;;;;;5.78;3.58;;;12.50;99.90;;;;;;5057890;28;20421;-63
2023/08/31 01:17:52;;;;;;;6.72;3.03;;;12.50;99.90;;;;;;5073661;28;20048;-63
2023/08/31 01:20:51;;;;;;;5.45;2.58;;;12.40;99.90;;;;;;5055780;28;20109;-62
2023/08/31 01:23:34;;;;;;;5.95;2.53;;;12.40;99.90;;;;;;5072995;28;20063;-64
2023/08/31 01:26:00;;;;;;;4.45;2.30;;;12.30;99.90;;;;;;5065005;28;20098;-62
2023/08/31 01:28:27;;;;;;;4.53;2.30;;;12.30;99.90;;;;;;5073489;28;20110;-63
2023/08/31 01:30:55;;;;;;;3.00;2.10;;;12.20;99.90;;;;;;5072454;28;20071;-64
2023/08/31 01:33:21;;;;;;;3.85;2.20;;;12.20;99.90;;;;;;5072417;28;20048;-62
2023/08/31 01:35:53;;;;;;;3.90;2.10;;;12.20;99.90;;;;;;5073380;28;20053;-62
2023/08/31 01:38:29;;;;;;;4.10;2.13;;;12.20;99.90;;;;;;5073312;28;20086;-62
2023/08/31 01:41:09;;;;;;;4.22;1.80;;;12.10;99.90;;;;;;5073405;28;20040;-62
2023/08/31 01:43:37;;;;;;;2.90;1.70;;;12.10;99.90;;;;;;5056848;28;20362;-62
2023/08/31 01:46:03;;;;;;;2.17;1.52;;;12.10;99.90;;;;;;5035853;28;20056;-64
2023/08/31 01:48:32;;;;;;;2.72;1.75;;;12.00;99.90;;;;;;5035918;28;20052;-63
2023/08/31 01:51:00;;;;;;;3.03;1.70;;;12.00;99.90;;;;;;5052592;28;20055;-63
2023/08/31 01:53:26;;;;;;;3.25;1.63;;;11.90;99.90;;;;;;5018316;28;20148;-63
2023/08/31 01:55:52;;;;;;;2.92;1.30;;;12.00;99.90;;;;;;5053424;28;20055;-63
2023/08/31 01:58:18;;;;;;;3.22;1.42;;;11.90;99.90;;;;;;5053599;28;20102;-63
2023/08/31 02:00:45;;;;;;;2.30;1.40;;;11.80;99.90;;;;;;5053299;28;20055;-63
2023/08/31 02:03:11;;;;;;;1.77;1.10;;;11.80;99.90;;;;;;5052594;28;20060;-63
2023/08/31 02:05:37;;;;;;;3.42;1.40;;;11.80;99.90;;;;;;5052988;28;20053;-63
2023/08/31 02:08:04;;;;;;;2.08;1.30;;;11.80;99.90;;;;;;5018937;28;20057;-63
2023/08/31 02:10:31;;;;;;;3.17;1.20;;;11.80;99.90;;;;;;5053209;28;20489;-63
2023/08/31 02:12:57;;;;;;;2.55;1.48;;;11.70;99.90;;;;;;5034579;28;20049;-63
2023/08/31 02:15:24;;;;;;;2.35;1.13;;;11.80;99.90;;;;;;5052581;28;20056;-63
2023/08/31 02:17:50;;;;;;;1.65;1.02;;;11.70;99.90;;;;;;5053046;28;20056;-63
2023/08/31 02:20:16;;;;;;;2.00;1.20;;;11.70;99.90;;;;;;5052616;28;20048;-62
2023/08/31 02:22:43;;;;;;;1.92;1.10;;;11.70;99.90;;;;;;5052842;28;20048;-63
2023/08/31 02:25:09;;;;;;;2.90;1.40;;;11.60;99.90;;;;;;5051867;28;20060;-63
2023/08/31 02:27:35;;;;;;;2.83;1.52;;;11.60;99.90;;;;;;5052859;28;20049;-62
2023/08/31 02:30:04;;;;;;;3.03;2.20;;;11.60;99.90;;;;;;5052806;28;20049;-63
2023/08/31 02:32:31;;;;;;;3.92;1.83;;;11.60;99.90;;;;;;5018037;28;20436;-63
2023/08/31 02:35:03;;;;;;;3.13;2.17;;;11.60;99.90;;;;;;5051656;28;20053;-63
2023/08/31 02:37:30;;;;;;;3.15;2.30;;;11.50;99.90;;;;;;5052578;28;20049;-64
2023/08/31 02:39:56;;;;;;;4.65;2.38;;;11.50;99.90;;;;;;5035057;28;20339;-64
2023/08/31 02:42:23;;;;;;;3.17;2.70;;;11.50;99.90;;;;;;5034952;28;20072;-63
2023/08/31 02:45:22;;;;;;;4.00;3.00;;;11.50;99.90;;;;;;5035137;28;20154;-63
2023/08/31 02:47:50;;;;;;;5.15;4.13;;;11.50;99.90;;;;;;5017997;28;20067;-63
2023/08/31 02:50:16;;;;;;;5.55;4.10;;;11.60;99.90;;;;;;5052365;28;20053;-63
2023/08/31 02:52:42;;;;;;;5.32;4.60;;;11.50;99.90;;;;;;5051946;28;20461;-63
2023/08/31 02:55:10;;;;;;;5.55;4.80;;;11.50;99.90;;;;;;5067320;28;20449;-62
2023/08/31 02:57:36;;;;;;;6.50;5.75;;;11.60;99.90;;;;;;5054545;28;20503;-63
2023/08/31 03:00:03;;;;;;;5.93;5.30;;;11.60;99.90;;;;;;5072091;28;20106;-63
2023/08/31 03:02:29;;;;;;;6.78;5.90;;;11.50;99.90;;;;;;5037745;28;20052;-62
2023/08/31 03:04:56;;;;;;;7.03;6.32;;;11.50;99.90;;;;;;5057435;28;20114;-62
2023/08/31 03:07:22;;;;;;;7.47;6.78;;;11.60;99.90;;;;;;5034368;28;20049;-62
2023/08/31 03:09:50;;;;;;;6.93;6.22;;;11.50;99.90;;;;;;5051923;28;20045;-63
2023/08/31 03:12:16;;;;;;;6.68;6.00;;;11.50;99.90;;;;;;5034204;28;20444;-62
2023/08/31 03:14:43;;;;;;;6.15;5.47;;;11.50;99.90;;;;;;5063427;28;20040;-62
2023/08/31 03:17:09;;;;;;;7.55;5.65;;;11.50;99.90;;;;;;5054123;28;20052;-63
2023/08/31 03:19:37;;;;;;;8.05;5.15;;;11.40;99.90;;;;;;5072127;28;20433;-62
2023/08/31 03:22:03;;;;;;;6.50;5.10;;;11.40;99.90;;;;;;5071437;28;20404;-62
2023/08/31 03:24:29;;;;;;;8.57;5.88;;;11.50;99.90;;;;;;5061233;28;20045;-63
2023/08/31 03:26:55;;;;;;;6.43;4.70;;;11.50;99.90;;;;;;5051871;28;20056;-62
2023/08/31 03:29:23;;;;;;;6.05;4.45;;;11.50;99.90;;;;;;5034390;28;20072;-62
2023/08/31 03:31:49;;;;;;;6.72;4.70;;;11.40;99.90;;;;;;5051945;28;20064;-62
2023/08/31 03:34:15;;;;;;;5.65;4.40;;;11.40;99.90;;;;;;5041158;28;20056;-62
2023/08/31 03:36:41;;;;;;;5.47;4.32;;;11.50;99.90;;;;;;5071516;28;20053;-62
2023/08/31 03:39:09;;;;;;;6.85;3.72;;;11.50;99.90;;;;;;5054009;28;20049;-64
2023/08/31 03:41:35;;;;;;;5.00;3.83;;;11.40;99.90;;;;;;5054481;28;20063;-62
2023/08/31 03:44:02;;;;;;;5.50;3.70;;;11.50;99.90;;;;;;5065879;28;20061;-62
2023/08/31 03:46:28;;;;;;;4.90;3.17;;;11.50;99.90;;;;;;5055845;28;20048;-62
2023/08/31 03:49:04;;;;;;;4.53;3.53;;;11.40;99.90;;;;;;5055802;28;20060;-62
2023/08/31 03:51:30;;;;;;;5.35;3.25;;;11.40;99.90;;;;;;5055574;28;20060;-62
2023/08/31 03:53:56;;;;;;;6.00;3.72;;;11.40;99.90;;;;;;5042566;28;20045;-61
2023/08/31 03:56:23;;;;;;;4.03;3.25;;;11.40;99.90;;;;;;5076099;28;20055;-63
2023/08/31 03:58:49;;;;;;;5.03;3.10;;;11.50;99.90;;;;;;5075623;28;20059;-62
2023/08/31 04:01:15;;;;;;;3.90;2.92;;;11.50;99.90;;;;;;5075607;28;20093;-62
2023/08/31 04:03:43;;;;;;;5.60;3.45;;;11.50;99.90;;;;;;5053942;28;20071;-62
2023/08/31 04:06:10;;;;;;;4.63;2.80;;;11.40;99.90;;;;;;5037761;28;20045;-62
2023/08/31 04:08:36;;;;;;;5.75;3.58;;;11.50;99.90;;;;;;5055643;28;20059;-62
2023/08/31 04:11:03;;;;;;;7.53;3.22;;;11.50;99.90;;;;;;5055399;28;20192;-62
2023/08/31 04:13:30;;;;;;;6.57;3.05;;;11.50;99.90;;;;;;5038157;28;20053;-63
2023/08/31 04:15:56;;;;;;;7.18;3.67;;;11.50;99.90;;;;;;5075000;28;20431;-63
2023/08/31 04:18:23;;;;;;;5.18;3.10;;;11.40;99.90;;;;;;5057517;28;20051;-62
2023/08/31 04:20:54;;;;;;;4.55;3.40;;;11.40;99.90;;;;;;5075420;28;20044;-62
2023/08/31 04:23:22;;;;;;;5.45;2.95;;;11.50;99.90;;;;;;5056379;28;20044;-63
2023/08/31 04:25:50;;;;;;;5.65;3.20;;;11.50;99.90;;;;;;5019387;28;20046;-62
2023/08/31 04:28:18;;;;;;;8.05;3.72;;;11.40;99.90;;;;;;5057514;28;20491;-62
2023/08/31 04:30:44;;;;;;;4.80;3.33;;;11.50;99.90;;;;;;5057182;28;20060;-62
2023/08/31 04:33:10;;;;;;;7.55;3.88;;;11.40;99.90;;;;;;5074521;28;20067;-63
2023/08/31 04:35:37;;;;;;;5.15;3.60;;;11.40;99.90;;;;;;5055556;28;20053;-64
2023/08/31 04:38:03;;;;;;;7.28;4.50;;;11.50;99.90;;;;;;5055372;28;20149;-64
2023/08/31 04:40:29;;;;;;;5.03;4.43;;;11.40;99.90;;;;;;5055234;28;20194;-62
2023/08/31 04:42:56;;;;;;;6.88;5.28;;;11.40;99.90;;;;;;5064221;28;20068;-62
2023/08/31 04:45:22;;;;;;;5.85;4.80;;;11.50;99.90;;;;;;5038917;28;20477;-62
2023/08/31 04:47:50;;;;;;;8.60;5.50;;;11.50;99.90;;;;;;5074500;28;20049;-62
2023/08/31 04:50:17;;;;;;;5.78;5.00;;;11.60;99.90;;;;;;5074032;28;20449;-62
2023/08/31 04:52:44;;;;;;;6.28;5.55;;;11.60;99.90;;;;;;5039836;28;20059;-62
2023/08/31 04:55:13;;;;;;;6.72;5.40;;;11.60;99.90;;;;;;5088808;28;20040;-63
2023/08/31 04:57:39;;;;;;;6.55;5.40;;;11.60;99.90;;;;;;5094405;28;20430;-63
2023/08/31 05:00:09;;;;;;;8.10;5.28;;;11.60;99.90;;;;;;5095090;28;20048;-62
2023/08/31 05:02:37;;;;;;;5.80;5.20;;;11.60;99.90;;;;;;5094858;28;20044;-63
2023/08/31 05:05:04;;;;;;;7.18;5.20;;;11.70;99.90;;;;;;5080551;28;20057;-64
2023/08/31 05:07:31;;;;;;;7.45;5.13;;;11.70;99.90;;;;;;5074647;28;20102;-63
2023/08/31 05:09:57;;;;;;;7.57;5.18;;;11.70;99.90;;;;;;5074437;28;20661;-63
2023/08/31 05:12:24;;;;;;;8.15;5.70;;;11.80;99.90;;;;;;5056871;28;20060;-62
2023/08/31 05:14:51;;;;;;;7.05;5.13;;;11.80;99.90;;;;;;5085962;28;20055;-62
2023/08/31 05:17:18;;;;;;;6.38;5.07;;;11.70;99.90;;;;;;5094452;28;20040;-63
2023/08/31 05:19:45;;;;;;;7.20;5.63;;;11.80;99.90;;;;;;5094546;28;20586;-63
2023/08/31 05:22:12;;;;;;;6.90;5.38;;;12.00;99.90;;;;;;5076524;28;20052;-62
2023/08/31 05:24:38;;;;;;;6.88;5.43;;;12.00;99.90;;;;;;5065298;28;20353;-63
2023/08/31 05:27:06;;;;;;;7.15;5.63;;;12.10;99.90;;;;;;5056441;28;20158;-63
2023/08/31 05:29:32;;;;;;;8.02;5.20;;;12.20;99.90;;;;;;5074117;28;20074;-62
2023/08/31 05:31:58;;;;;;;8.77;5.25;;;12.20;99.90;;;;;;5074253;28;20137;-63
2023/08/31 05:34:25;;;;;;;6.63;4.63;;;12.20;99.90;;;;;;5081522;28;20063;-62
2023/08/31 05:36:52;;;;;;;7.68;5.22;;;12.30;99.90;;;;;;5075987;28;20048;-63
2023/08/31 05:39:18;;;;;;;6.60;4.88;;;12.30;99.90;;;;;;5094051;28;20118;-63
2023/08/31 05:41:44;;;;;;;6.22;4.53;;;12.40;99.90;;;;;;5076263;28;20063;-63
2023/08/31 05:44:11;;;;;;;7.35;4.80;;;12.60;99.90;;;;;;5069126;28;20063;-64
2023/08/31 05:46:39;;;;;;;6.85;4.40;;;12.50;99.90;;;;;;5073920;28;20048;-63
2023/08/31 05:49:08;;;;;;;5.25;4.15;;;12.80;99.90;;;;;;5073908;28;20479;-63
2023/08/31 05:51:34;;;;;;;6.28;4.40;;;13.40;99.90;;;;;;5073789;28;20044;-63
2023/08/31 05:54:01;;;;;;;5.88;4.97;;;14.10;99.90;;;;;;5072656;28;20110;-63
2023/08/31 05:56:27;;;;;;;5.78;4.00;;;14.80;99.90;;;;;;5073415;28;20358;-63
2023/08/31 05:58:55;;;;;;;4.97;4.00;;;15.20;99.90;;;;;;5072312;28;20048;-64
2023/08/31 06:01:22;;;;;;;6.65;4.35;;;15.70;99.90;;;;;;5076519;28;20143;-63
2023/08/31 06:03:48;;;;;;;5.72;4.07;;;16.30;99.90;;;;;;5072530;28;20051;-63
2023/08/31 06:06:15;;;;;;;10.70;4.75;;;16.60;99.90;;;;;;5073638;28;20052;-63
2023/08/31 06:08:43;;;;;;;5.68;3.67;;;16.60;99.90;;;;;;5073345;28;20048;-63
2023/08/31 06:11:10;;;;;;;4.57;3.60;;;16.60;99.90;;;;;;5056485;28;20060;-64
2023/08/31 06:13:37;;;;;;;4.97;3.35;;;16.60;99.90;;;;;;5072465;28;20056;-63
2023/08/31 06:16:04;;;;;;;8.05;3.40;;;16.30;99.90;;;;;;5074233;28;20106;-63
2023/08/31 06:18:30;;;;;;;5.30;3.78;;;16.00;99.90;;;;;;5055220;28;20103;-63
2023/08/31 06:20:56;;;;;;;5.65;3.20;;;16.20;99.90;;;;;;5073189;28;20048;-63
2023/08/31 06:23:23;;;;;;;4.50;3.03;;;16.50;99.90;;;;;;5072709;28;20048;-64
2023/08/31 06:25:49;;;;;;;3.88;2.65;;;16.00;99.90;;;;;;5055039;28;20494;-63
2023/08/31 06:28:16;;;;;;;3.85;2.85;;;16.10;99.90;;;;;;5055304;28;20469;-64
2023/08/31 06:30:47;;;;;;;5.45;3.10;;;16.40;99.90;;;;;;5055364;28;20063;-63
2023/08/31 06:33:45;;;;;;;6.63;3.20;;;16.80;99.90;;;;;;5054893;28;20044;-64
2023/08/31 06:36:12;;;;;;;5.65;2.92;;;17.30;99.90;;;;;;5072248;28;20464;-64
2023/08/31 06:38:38;;;;;;;6.00;2.55;;;17.60;99.90;;;;;;5072813;28;20110;-64
2023/08/31 06:41:04;;;;;;;4.53;2.55;;;17.30;99.90;;;;;;5072918;28;20052;-63
2023/08/31 06:43:31;;;;;;;2.97;2.20;;;16.70;99.90;;;;;;5037684;28;20451;-63
2023/08/31 06:45:57;;;;;;;3.53;1.90;;;16.20;99.90;;;;;;5051299;28;20092;-63
2023/08/31 06:48:25;;;;;;;7.13;2.30;;;15.90;99.90;;;;;;5052595;28;20076;-64
2023/08/31 06:50:51;;;;;;;5.00;2.35;;;15.80;99.90;;;;;;5018341;28;20053;-63
2023/08/31 06:53:18;;;;;;;4.18;1.70;;;15.70;99.90;;;;;;5051868;28;20099;-63
2023/08/31 06:55:45;;;;;;;7.20;1.95;;;15.80;99.90;;;;;;5054237;28;20049;-63
2023/08/31 06:58:12;;;;;;;6.03;1.90;;;16.30;99.90;;;;;;5072357;28;20449;-62
2023/08/31 07:00:38;;;;;;;4.57;1.60;;;16.60;99.90;;;;;;5072319;28;20040;-63
2023/08/31 07:03:06;;;;;;;7.07;1.70;;;17.00;99.90;;;;;;5071980;28;20052;-63
2023/08/31 07:05:41;;;;;;;2.78;1.33;;;16.80;99.90;;;;;;5071156;28;20049;-63
2023/08/31 07:08:08;;;;;;;5.20;1.70;;;16.60;99.90;;;;;;5072379;28;20079;-63
2023/08/31 07:10:39;;;;;;;3.63;1.50;;;16.80;99.90;;;;;;5054977;28;20398;-63
2023/08/31 07:13:05;;;;;;;4.60;1.50;;;16.70;99.90;;;;;;5071847;28;20106;-62
2023/08/31 07:15:32;;;;;;;2.78;1.25;;;16.50;99.90;;;;;;5063599;28;20128;-62
2023/08/31 07:17:58;;;;;;;5.22;1.60;;;16.30;99.90;;;;;;5072061;28;20048;-63
2023/08/31 07:20:24;;;;;;;3.22;1.45;;;16.20;99.90;;;;;;5071484;28;20052;-63
2023/08/31 07:22:51;;;;;;;3.70;1.40;;;16.30;99.90;;;;;;5071806;28;20098;-62
2023/08/31 07:25:17;;;;;;;3.05;1.42;;;16.40;99.90;;;;;;5071263;28;20049;-63
2023/08/31 07:27:43;;;;;;;2.75;1.45;;;16.50;99.90;;;;;;5073050;28;20123;-63
2023/08/31 07:30:12;;;;;;;3.30;1.30;;;16.50;99.90;;;;;;5072244;28;20102;-63
2023/08/31 07:32:39;;;;;;;3.42;1.23;;;16.60;99.90;;;;;;5071403;28;20056;-63
2023/08/31 07:35:06;;;;;;;4.80;1.60;;;16.60;99.90;;;;;;5063401;28;20117;-62
2023/08/31 07:37:32;;;;;;;5.68;1.50;;;16.70;99.90;;;;;;5072038;28;20054;-63
2023/08/31 07:39:59;;;;;;;6.25;1.85;;;16.70;99.90;;;;;;5071968;28;20049;-63
2023/08/31 07:42:25;;;;;;;1.77;0.82;;;16.90;99.90;;;;;;5069565;28;20461;-64
2023/08/31 07:44:51;;;;;;;4.20;1.80;;;16.90;99.90;;;;;;5051743;28;20083;-63
2023/08/31 07:47:17;;;;;;;4.55;1.38;;;16.80;99.90;;;;;;5051775;28;20107;-63
2023/08/31 07:49:44;;;;;;;3.20;1.13;;;16.80;99.90;;;;;;5033590;28;20060;-63
2023/08/31 07:52:12;;;;;;;3.55;1.40;;;16.50;99.90;;;;;;5050942;28;20377;-64
2023/08/31 07:54:38;;;;;;;3.25;1.20;;;16.50;99.90;;;;;;5033195;28;20041;-63
2023/08/31 07:57:04;;;;;;;5.95;1.58;;;16.40;99.90;;;;;;5051236;28;20535;-63
2023/08/31 07:59:31;;;;;;;2.63;1.20;;;16.50;99.90;;;;;;5051481;28;20045;-64
2023/08/31 08:01:57;;;;;;;5.93;1.70;;;16.50;99.90;;;;;;5051373;28;20437;-64
2023/08/31 08:04:25;;;;;;;2.78;1.40;;;16.50;99.90;;;;;;5032835;28;20053;-63
2023/08/31 08:06:54;;;;;;;4.32;1.30;;;16.50;99.90;;;;;;5051341;28;20136;-63
2023/08/31 08:09:20;;;;;;;4.43;1.40;;;16.40;99.90;;;;;;5051055;28;20045;-63
2023/08/31 08:11:46;;;;;;;7.95;1.60;;;16.50;99.90;;;;;;5051037;28;20056;-64
2023/08/31 08:14:13;;;;;;;2.75;1.15;;;16.60;99.90;;;;;;5050521;28;20041;-63
2023/08/31 08:16:44;;;;;;;4.20;1.65;;;16.80;99.90;;;;;;5033445;28;20059;-63
2023/08/31 08:19:11;;;;;;;5.47;1.30;;;16.90;99.90;;;;;;5033347;28;20049;-64
2023/08/31 08:21:37;;;;;;;5.32;1.55;;;16.90;99.90;;;;;;5051359;28;20045;-63
2023/08/31 08:24:03;;;;;;;5.55;1.60;;;16.90;99.90;;;;;;5051008;28;20103;-63
2023/08/31 08:26:30;;;;;;;3.08;1.17;;;17.00;99.90;;;;;;5050901;28;20132;-63
2023/08/31 08:28:56;;;;;;;5.75;1.50;;;16.90;99.90;;;;;;5051159;28;20041;-64
2023/08/31 08:31:25;;;;;;;13.80;2.90;;;17.00;99.90;;;;;;5036732;28;20060;-62
2023/08/31 08:33:51;;;;;;;6.38;2.25;;;17.10;99.90;;;;;;5054198;28;20053;-63
2023/08/31 08:36:18;;;;;;;5.20;1.65;;;17.10;99.90;;;;;;5054386;28;20108;-63
2023/08/31 08:38:44;;;;;;;2.97;1.30;;;17.00;99.90;;;;;;5054361;28;20044;-63
2023/08/31 08:41:29;;;;;;;4.07;1.35;;;16.80;99.90;;;;;;5037147;28;20060;-63
2023/08/31 08:44:01;;;;;;;6.20;1.80;;;16.90;99.90;;;;;;5054473;28;20052;-64
2023/08/31 08:46:27;;;;;;;5.80;1.90;;;16.80;99.90;;;;;;5040582;28;20514;-63
2023/08/31 08:48:55;;;;;;;4.28;1.67;;;16.80;99.90;;;;;;5074403;28;20381;-63
2023/08/31 08:51:22;;;;;;;7.50;2.38;;;16.80;99.90;;;;;;5056960;28;20347;-63
2023/08/31 08:53:50;;;;;;;7.10;1.92;;;16.70;99.90;;;;;;5072274;28;20069;-62
2023/08/31 08:56:17;;;;;;;4.80;1.60;;;16.70;99.90;;;;;;5054235;28;20439;-62
2023/08/31 08:58:43;;;;;;;5.40;1.73;;;16.70;99.90;;;;;;5036706;28;20056;-63
2023/08/31 09:01:09;;;;;;;4.20;1.40;;;16.60;99.90;;;;;;5054754;28;20041;-63
2023/08/31 09:03:37;;;;;;;6.32;2.10;;;16.60;99.90;;;;;;5053712;28;20052;-63
2023/08/31 09:06:08;;;;;;;4.05;1.70;;;16.80;99.90;;;;;;5073741;28;20048;-63
2023/08/31 09:08:37;;;;;;;3.30;1.63;;;16.70;99.90;;;;;;5074366;28;20063;-66
2023/08/31 09:11:03;;;;;;;3.67;2.03;;;16.90;99.90;;;;;;5074022;28;20052;-62
2023/08/31 09:13:30;;;;;;;2.40;1.27;;;17.10;99.90;;;;;;5073713;28;20063;-63
2023/08/31 09:16:05;;;;;;;4.38;1.30;;;17.10;99.90;;;;;;5054237;28;20053;-63
2023/08/31 09:18:32;;;;;;;4.97;1.58;;;17.00;99.90;;;;;;5054076;28;20060;-63
2023/08/31 09:21:00;;;;;;;7.68;2.08;;;17.00;99.90;;;;;;5054064;28;20092;-63
2023/08/31 09:23:27;;;;;;;8.13;1.88;;;17.10;99.90;;;;;;5036006;28;20087;-63
2023/08/31 09:25:55;;;;;;;4.90;1.73;;;17.00;99.90;;;;;;5035871;28;20052;-62
2023/08/31 09:28:26;;;;;;;4.25;1.55;;;17.10;99.90;;;;;;5053918;28;20053;-62
2023/08/31 09:30:53;;;;;;;5.45;1.80;;;17.20;99.90;;;;;;5019868;28;20414;-62
2023/08/31 09:33:20;;;;;;;3.40;1.30;;;17.30;99.90;;;;;;5019291;28;20450;-62
2023/08/31 09:35:59;;;;;;;3.90;1.48;;;17.40;99.90;;;;;;5053142;28;20122;-62
2023/08/31 09:38:26;;;;;;;5.10;1.30;;;17.50;99.90;;;;;;5036305;28;20083;-63
2023/08/31 09:41:06;;;;;;;5.90;1.40;;;17.70;99.90;;;;;;5053518;28;20099;-63
2023/08/31 09:43:32;;;;;;;4.50;1.80;;;17.70;99.90;;;;;;5035178;28;20114;-63
2023/08/31 09:46:00;;;;;;;3.97;1.27;;;17.80;99.90;;;;;;5072196;28;20086;-64
2023/08/31 09:48:27;;;;;;;6.38;2.30;;;17.90;99.90;;;;;;5073481;28;20098;-63
2023/08/31 09:50:55;;;;;;;12.00;2.97;;;17.90;99.90;;;;;;5055581;28;20071;-62
2023/08/31 09:53:24;;;;;;;7.00;2.00;;;17.80;99.90;;;;;;5073128;28;20082;-63
2023/08/31 09:55:51;;;;;;;8.80;2.58;;;17.60;99.90;;;;;;5055344;28;20453;-63
2023/08/31 09:58:30;;;;;;;14.25;2.70;;;17.60;99.90;;;;;;5019060;28;20055;-63
2023/08/31 10:00:59;;;;;;;4.50;1.40;;;17.50;99.90;;;;;;5054550;28;20059;-64
2023/08/31 10:03:27;;;;;;;3.22;1.30;;;16.60;99.90;;;;;;5035026;28;20429;-65
2023/08/31 10:05:55;;;;;;;3.78;1.42;;;16.20;99.90;;;;;;5053585;28;20044;-64
2023/08/31 10:08:21;;;;;;;4.20;1.40;;;16.10;99.90;;;;;;5073323;28;20102;-64
2023/08/31 10:10:47;;;;;;;8.70;2.42;;;16.10;99.90;;;;;;5073093;28;20048;-66
2023/08/31 10:13:15;;;;;;;4.15;1.58;;;16.30;99.90;;;;;;5072377;28;20083;-65
2023/08/31 10:15:43;;;;;;;4.75;1.30;;;16.70;99.90;;;;;;5056290;28;20041;-63
2023/08/31 10:18:11;;;;;;;7.65;2.05;;;16.90;99.90;;;;;;5035310;28;20102;-64
2023/08/31 10:20:42;;;;;;;6.32;1.50;;;17.20;99.90;;;;;;5053075;28;20071;-64
2023/08/31 10:23:09;;;;;;;5.43;1.80;;;17.50;99.90;;;;;;5052520;28;20055;-64
2023/08/31 10:25:53;;;;;;;4.68;1.40;;;17.40;99.90;;;;;;5050788;28;20143;-63
2023/08/31 10:28:30;;;;;;;2.75;1.20;;;17.50;99.90;;;;;;5055342;28;20382;-65
2023/08/31 10:31:04;;;;;;;5.32;1.65;;;17.60;99.90;;;;;;5072862;28;20056;-62
2023/08/31 10:33:44;;;;;;;3.80;1.73;;;17.70;99.90;;;;;;5071982;28;20063;-63
2023/08/31 10:36:15;;;;;;;6.93;2.20;;;18.00;99.90;;;;;;5015015;28;20355;-63
2023/08/31 10:38:45;;;;;;;4.50;1.60;;;18.20;99.90;;;;;;5032866;28;20057;-63
2023/08/31 10:41:13;;;;;;;3.80;1.58;;;18.40;99.90;;;;;;5032610;28;20053;-63
2023/08/31 10:43:46;;;;;;;4.15;1.23;;;18.50;99.90;;;;;;5032026;28;20045;-63
2023/08/31 10:46:34;;;;;;;5.90;1.90;;;18.80;99.90;;;;;;5031642;28;20063;-62
2023/08/31 10:49:16;;;;;;;7.97;2.17;;;18.80;99.90;;;;;;5032553;28;20392;-63
2023/08/31 10:51:45;;;;;;;9.35;2.63;;;18.90;99.90;;;;;;5032176;28;20417;-63
2023/08/31 10:54:37;;;;;;;6.22;2.00;;;19.20;99.90;;;;;;5035928;28;20079;-63
2023/08/31 10:57:08;;;;;;;5.60;1.90;;;19.30;99.90;;;;;;5052626;28;20136;-62
2023/08/31 10:59:52;;;;;;;7.05;2.00;;;19.10;99.90;;;;;;5052394;28;20049;-62
2023/08/31 11:02:43;;;;;;;7.72;2.30;;;18.80;99.90;;;;;;5033638;28;20045;-62
2023/08/31 11:05:17;;;;;;;9.02;2.40;;;18.50;99.90;;;;;;5051841;28;20053;-63
2023/08/31 11:07:48;;;;;;;4.75;1.55;;;18.30;99.90;;;;;;5034529;28;20454;-62
2023/08/31 11:10:23;;;;;;;8.60;2.05;;;17.80;99.90;;;;;;5019190;28;20492;-64
2023/08/31 11:12:52;;;;;;;6.07;1.73;;;15.90;99.90;;;;;;5035946;28;20055;-65
2023/08/31 11:15:21;;;;;;;4.68;2.20;;;14.60;99.90;;;;;;5034767;28;20115;-64
2023/08/31 11:17:53;;;;;;;4.53;1.08;;;13.90;99.90;;;;;;5052267;28;20053;-64
2023/08/31 11:20:21;;;;;;;2.63;1.15;;;13.80;99.90;;;;;;5052316;28;20460;-65
2023/08/31 11:22:49;;;;;;;3.33;1.10;;;13.80;99.90;;;;;;5051609;28;20111;-63
2023/08/31 11:25:16;;;;;;;2.13;0.77;;;13.80;99.90;;;;;;5051564;28;20053;-63
2023/08/31 11:27:57;;;;;;;2.78;1.25;;;14.00;99.90;;;;;;5051752;28;20434;-63
2023/08/31 11:30:26;;;;;;;3.88;1.23;;;14.30;99.90;;;;;;5017568;28;20053;-64
2023/08/31 11:32:53;;;;;;;4.82;1.40;;;14.50;99.90;;;;;;5051136;28;20087;-64
2023/08/31 11:35:20;;;;;;;7.85;2.05;;;14.70;99.90;;;;;;5050930;28;20036;-64
2023/08/31 11:37:51;;;;;;;5.82;2.00;;;15.00;99.90;;;;;;5051397;28;20114;-63
2023/08/31 11:40:18;;;;;;;7.35;2.45;;;15.40;99.90;;;;;;5051489;28;20052;-64
2023/08/31 11:42:49;;;;;;;7.22;2.30;;;15.60;99.90;;;;;;5023592;28;20048;-63
2023/08/31 11:45:16;;;;;;;6.50;2.33;;;16.00;99.90;;;;;;5073814;28;20048;-64
2023/08/31 11:47:44;;;;;;;3.75;1.50;;;16.30;99.90;;;;;;5091864;28;20064;-64
2023/08/31 11:50:12;;;;;;;7.35;2.13;;;16.60;99.90;;;;;;5091648;28;20054;-64
2023/08/31 11:52:48;;;;;;;8.48;2.17;;;16.90;99.90;;;;;;5073480;28;20101;-65
2023/08/31 11:55:20;;;;;;;4.90;2.00;;;17.40;99.90;;;;;;5056534;28;20054;-64
2023/08/31 11:57:50;;;;;;;6.88;2.00;;;17.40;99.90;;;;;;5075011;28;20371;-64
2023/08/31 12:00:19;;;;;;;6.40;2.00;;;17.70;99.90;;;;;;5091868;28;20051;-64
2023/08/31 12:02:48;;;;;;;5.72;1.63;;;18.00;99.90;;;;;;5073872;28;20052;-64
2023/08/31 12:05:15;;;;;;;4.13;1.38;;;17.90;99.90;;;;;;5075160;28;20059;-64
2023/08/31 12:07:41;;;;;;;18.80;3.17;;;17.50;99.90;;;;;;5096322;28;20051;-64
2023/08/31 12:10:09;;;;;;;9.13;2.13;;;17.30;99.90;;;;;;5096915;28;20052;-64
2023/08/31 12:12:36;;;;;;;4.93;1.45;;;16.80;99.90;;;;;;5077831;28;20056;-64
2023/08/31 12:15:06;;;;;;;5.45;1.50;;;16.40;99.90;;;;;;5096133;28;20044;-64
2023/08/31 12:17:37;;;;;;;2.78;1.58;;;16.20;99.90;;;;;;5095547;28;20052;-64
2023/08/31 12:20:07;;;;;;;3.42;1.20;;;16.00;99.90;;;;;;5095247;28;20101;-63
2023/08/31 12:22:35;;;;;;;3.75;1.65;;;15.90;99.90;;;;;;5095288;28;20043;-64
2023/08/31 12:25:02;;;;;;;6.70;1.38;;;15.70;99.90;;;;;;5095079;28;20429;-64
2023/08/31 12:27:29;;;;;;;4.50;1.40;;;15.70;99.90;;;;;;5095152;28;20052;-64
2023/08/31 12:29:57;;;;;;;2.92;1.15;;;15.60;99.90;;;;;;5077032;28;20052;-65
2023/08/31 12:32:25;;;;;;;5.68;1.35;;;15.80;99.90;;;;;;5076601;28;20060;-64
2023/08/31 12:34:51;;;;;;;3.88;1.38;;;16.00;99.90;;;;;;5094496;28;20291;-64
2023/08/31 12:37:18;;;;;;;3.70;1.55;;;16.20;99.90;;;;;;5095066;28;20036;-63
2023/08/31 12:39:45;;;;;;;6.15;1.63;;;16.50;99.90;;;;;;5094903;28;20044;-64
2023/08/31 12:42:12;;;;;;;4.28;1.80;;;16.70;99.90;;;;;;5076554;28;20571;-64
2023/08/31 12:44:38;;;;;;;4.95;1.77;;;17.00;99.90;;;;;;5095219;28;20082;-65
2023/08/31 12:47:04;;;;;;;4.68;1.65;;;17.20;99.90;;;;;;5095105;28;20044;-64
2023/08/31 12:49:31;;;;;;;5.82;1.45;;;17.30;99.90;;;;;;5076967;28;20467;-64
2023/08/31 12:51:57;;;;;;;4.70;1.73;;;17.40;99.90;;;;;;5094439;28;20052;-63
2023/08/31 12:54:23;;;;;;;5.53;1.90;;;17.40;99.90;;;;;;5094317;28;20054;-64